createdAt,value
2023-03-01T00:04:37.055Z,2.47
2023-03-01T00:09:41.292Z,2.47
2023-03-01T00:14:44.564Z,2.43
2023-03-01T00:19:47.801Z,2.38
2023-03-01T00:31:57.317Z,2.34
2023-03-01T00:37:06.418Z,2.34
2023-03-01T00:42:09.777Z,2.28
2023-03-01T00:47:13.094Z,2.27
2023-03-01T00:52:16.356Z,2.27
2023-03-01T00:57:20.102Z,2.30
2023-03-01T01:02:24.442Z,2.29
2023-03-01T01:07:28.077Z,2.29
2023-03-01T01:12:31.691Z,2.26
2023-03-01T01:17:35.016Z,2.23
2023-03-01T01:22:39.082Z,2.21
2023-03-01T01:27:42.470Z,2.16
2023-03-01T01:32:45.960Z,2.13
2023-03-01T01:37:49.308Z,2.10
2023-03-01T01:42:53.074Z,2.06
2023-03-01T01:48:02.056Z,2.04
2023-03-01T01:53:13.851Z,2.03
2023-03-01T01:58:20.509Z,2.02
2023-03-01T02:03:34.535Z,1.98
2023-03-01T02:08:42.479Z,1.95
2023-03-01T02:13:46.338Z,1.90
2023-03-01T02:18:51.465Z,1.89
2023-03-01T02:23:56.919Z,1.85
2023-03-01T02:29:00.535Z,1.79
2023-03-01T02:34:05.777Z,1.76
2023-03-01T02:39:15.501Z,1.74
2023-03-01T02:44:19.042Z,1.71
2023-03-01T02:49:25.999Z,1.65
2023-03-01T02:54:40.124Z,1.65
2023-03-01T02:59:44.509Z,1.63
2023-03-01T03:04:48.537Z,1.63
2023-03-01T03:09:52.056Z,1.60
2023-03-01T03:14:55.453Z,1.56
2023-03-01T03:19:58.890Z,1.55
2023-03-01T03:25:02.440Z,1.53
2023-03-01T03:30:13.486Z,1.50
2023-03-01T03:35:16.824Z,1.48
2023-03-01T03:40:20.141Z,1.47
2023-03-01T03:45:23.849Z,1.43
2023-03-01T03:50:27.521Z,1.39
2023-03-01T03:55:31.941Z,1.38
2023-03-01T04:00:37.877Z,1.37
2023-03-01T04:05:42.510Z,1.34
2023-03-01T04:10:48.982Z,1.26
2023-03-01T04:15:54.586Z,1.21
2023-03-01T04:20:57.899Z,1.22
2023-03-01T04:26:00.993Z,1.23
2023-03-01T04:31:14.326Z,1.21
2023-03-01T04:36:18.895Z,1.21
2023-03-01T04:41:23.813Z,1.23
2023-03-01T04:46:27.651Z,1.23
2023-03-01T04:51:30.984Z,1.22
2023-03-01T04:56:34.142Z,1.20
2023-03-01T05:01:38.216Z,1.18
2023-03-01T05:06:41.689Z,1.18
2023-03-01T05:11:45.714Z,1.22
2023-03-01T05:16:49.235Z,1.28
2023-03-01T05:22:07.939Z,1.27
2023-03-01T05:27:11.172Z,1.31
2023-03-01T05:32:16.962Z,1.32
2023-03-01T05:37:20.694Z,1.33
2023-03-01T05:42:24.078Z,1.35
2023-03-01T05:47:27.453Z,1.38
2023-03-01T05:52:30.566Z,1.36
2023-03-01T05:57:33.902Z,1.34
2023-03-01T06:02:37.308Z,1.35
2023-03-01T06:07:41.040Z,1.40
2023-03-01T06:12:44.928Z,1.44
2023-03-01T06:17:48.790Z,1.47
2023-03-01T06:22:52.872Z,1.57
2023-03-01T06:27:56.343Z,1.65
2023-03-01T06:33:02.589Z,1.68
2023-03-01T06:38:06.544Z,1.73
2023-03-01T06:43:09.886Z,1.79
2023-03-01T06:48:13.176Z,1.85
2023-03-01T06:53:16.498Z,1.94
2023-03-01T06:58:19.808Z,2.04
2023-03-01T07:03:23.880Z,2.18
2023-03-01T07:08:27.839Z,2.36
2023-03-01T07:13:31.308Z,2.51
2023-03-01T07:18:34.978Z,2.70
2023-03-01T07:23:38.654Z,2.89
2023-03-01T07:28:42.085Z,3.02
2023-03-01T07:33:45.432Z,3.13
2023-03-01T07:38:48.741Z,3.22
2023-03-01T07:43:51.835Z,3.32
2023-03-01T07:48:54.989Z,3.43
2023-03-01T07:53:58.177Z,3.56
2023-03-01T07:59:01.726Z,3.68
2023-03-01T08:04:08.263Z,3.82
2023-03-01T08:09:11.567Z,3.98
2023-03-01T08:14:14.914Z,4.15
2023-03-01T08:19:18.504Z,4.33
2023-03-01T08:24:22.080Z,4.48
2023-03-01T08:29:28.281Z,4.64
2023-03-01T08:34:32.704Z,4.80
2023-03-01T08:39:36.092Z,4.96
2023-03-01T08:44:39.387Z,5.08
2023-03-01T08:49:42.737Z,5.23
2023-03-01T08:54:46.334Z,5.31
2023-03-01T08:59:49.547Z,5.39
2023-03-01T09:04:52.989Z,5.50
2023-03-01T09:09:56.421Z,5.64
2023-03-01T09:15:05.135Z,5.78
2023-03-01T09:20:10.252Z,5.91
2023-03-01T09:25:21.665Z,6.06
2023-03-01T09:30:25.715Z,6.16
2023-03-01T09:35:29.260Z,6.24
2023-03-01T09:40:32.589Z,6.38
2023-03-01T09:45:40.891Z,6.52
2023-03-01T09:50:47.886Z,6.68
2023-03-01T09:56:01.283Z,6.85
2023-03-01T10:01:24.769Z,6.99
2023-03-01T10:06:34.917Z,7.13
2023-03-01T10:11:42.956Z,7.29
2023-03-01T10:17:00.114Z,7.44
2023-03-01T10:22:23.255Z,7.59
2023-03-01T10:27:35.963Z,7.77
2023-03-01T10:32:39.448Z,7.94
2023-03-01T10:37:59.058Z,8.08
2023-03-01T10:43:05.536Z,8.25
2023-03-01T10:48:25.712Z,8.48
2023-03-01T10:53:34.638Z,8.81
2023-03-01T10:58:39.897Z,9.09
2023-03-01T11:03:43.322Z,9.35
2023-03-01T11:08:49.150Z,9.57
2023-03-01T11:14:10.517Z,9.77
2023-03-01T11:19:22.519Z,9.91
2023-03-01T11:24:38.430Z,9.99
2023-03-01T11:29:49.359Z,10.01
2023-03-01T11:35:00.603Z,9.97
2023-03-01T11:40:13.371Z,9.95
2023-03-01T11:45:16.930Z,9.93
2023-03-01T11:50:36.349Z,9.95
2023-03-01T11:56:17.164Z,10.03
2023-03-01T12:01:42.549Z,10.23
2023-03-01T12:07:02.221Z,10.43
2023-03-01T12:12:27.204Z,10.64
2023-03-01T12:17:39.789Z,10.91
2023-03-01T12:22:55.253Z,11.16
2023-03-01T12:28:23.911Z,11.39
2023-03-01T12:33:51.796Z,11.51
2023-03-01T12:39:20.313Z,11.53
2023-03-01T12:44:48.209Z,11.52
2023-03-01T12:49:59.430Z,11.48
2023-03-01T12:55:08.061Z,11.46
2023-03-01T13:00:29.945Z,11.49
2023-03-01T13:05:43.465Z,11.58
2023-03-01T13:11:17.826Z,11.68
2023-03-01T13:16:40.656Z,11.80
2023-03-01T13:21:46.458Z,11.94
2023-03-01T13:27:08.391Z,12.08
2023-03-01T13:32:48.810Z,12.27
2023-03-01T13:37:52.232Z,12.41
2023-03-01T13:43:05.226Z,12.49
2023-03-01T13:48:25.513Z,12.41
2023-03-01T13:53:34.889Z,12.18
2023-03-01T13:58:56.469Z,11.86
2023-03-01T14:04:00.842Z,11.54
2023-03-01T14:09:09.781Z,11.27
2023-03-01T14:14:22.824Z,11.03
2023-03-01T14:19:33.482Z,10.81
2023-03-01T14:24:41.263Z,10.59
2023-03-01T14:29:45.457Z,10.39
2023-03-01T14:34:51.614Z,10.21
2023-03-01T14:39:56.484Z,10.04
2023-03-01T14:45:02.812Z,9.88
2023-03-01T14:50:22.643Z,9.79
2023-03-01T14:55:46.011Z,9.70
2023-03-01T15:01:06.094Z,9.61
2023-03-01T15:06:10.355Z,9.54
2023-03-01T15:11:26.100Z,9.47
2023-03-01T15:16:35.032Z,9.40
2023-03-01T15:21:40.048Z,9.33
2023-03-01T15:26:47.917Z,9.25
2023-03-01T15:32:06.294Z,9.18
2023-03-01T15:37:54.894Z,9.11
2023-03-01T15:43:19.033Z,9.03
2023-03-01T15:48:22.405Z,8.92
2023-03-01T15:53:26.209Z,8.84
2023-03-01T15:58:29.803Z,8.74
2023-03-01T16:03:33.099Z,8.67
2023-03-01T16:08:36.230Z,8.58
2023-03-01T16:13:39.363Z,8.47
2023-03-01T16:18:47.006Z,8.37
2023-03-01T16:31:33.356Z,8.12
2023-03-01T16:36:37.855Z,7.99
2023-03-01T16:41:41.346Z,7.88
2023-03-01T16:46:44.792Z,7.76
2023-03-01T16:51:48.254Z,7.64
2023-03-01T16:56:51.612Z,7.53
2023-03-01T17:01:54.809Z,7.42
2023-03-01T17:06:57.907Z,7.33
2023-03-01T17:12:01.236Z,7.21
2023-03-01T17:17:04.507Z,7.11
2023-03-01T17:22:07.957Z,7.00
2023-03-01T17:27:13.379Z,6.90
2023-03-01T17:32:16.748Z,6.82
2023-03-01T17:37:21.023Z,6.72
2023-03-01T17:42:24.771Z,6.63
2023-03-01T17:47:28.226Z,6.52
2023-03-01T17:52:31.783Z,6.41
2023-03-01T17:57:35.510Z,6.30
2023-03-01T18:02:39.070Z,6.23
2023-03-01T18:07:42.527Z,6.15
2023-03-01T18:12:45.725Z,6.06
2023-03-01T18:17:49.426Z,5.98
2023-03-01T18:22:53.012Z,5.92
2023-03-01T18:27:56.217Z,5.84
2023-03-01T18:32:59.329Z,5.75
2023-03-01T18:38:02.770Z,5.68
2023-03-01T18:43:06.029Z,5.60
2023-03-01T18:48:09.572Z,5.50
2023-03-01T18:53:12.830Z,5.41
2023-03-01T18:58:16.155Z,5.32
2023-03-01T19:03:19.503Z,5.24
2023-03-01T19:08:23.425Z,5.18
2023-03-01T19:13:27.551Z,5.11
2023-03-01T19:18:30.880Z,5.05
2023-03-01T19:23:35.366Z,4.95
2023-03-01T19:28:39.774Z,4.86
2023-03-01T19:33:43.932Z,4.77
2023-03-01T19:38:48.893Z,4.70
2023-03-01T19:43:52.409Z,4.64
2023-03-01T19:48:55.821Z,4.61
2023-03-01T19:53:59.365Z,4.59
2023-03-01T19:59:04.838Z,4.51
2023-03-01T20:04:10.032Z,4.44
2023-03-01T20:09:21.394Z,4.39
2023-03-01T20:14:25.284Z,4.34
2023-03-01T20:19:28.685Z,4.28
2023-03-01T20:24:32.269Z,4.26
2023-03-01T20:29:36.262Z,4.26
2023-03-01T20:34:39.588Z,4.26
2023-03-01T20:39:42.937Z,4.22
2023-03-01T20:44:46.649Z,4.17
2023-03-01T20:49:53.187Z,4.09
2023-03-01T20:54:56.392Z,4.01
2023-03-01T20:59:59.599Z,3.93
2023-03-01T21:05:03.157Z,3.88
2023-03-01T21:10:07.773Z,3.84
2023-03-01T21:15:15.110Z,3.80
2023-03-01T21:20:24.759Z,3.78
2023-03-01T21:25:35.075Z,3.75
2023-03-01T21:30:38.627Z,3.70
2023-03-01T21:35:41.988Z,3.69
2023-03-01T21:40:45.218Z,3.66
2023-03-01T21:45:49.128Z,3.64
2023-03-01T21:50:57.249Z,3.60
2023-03-01T21:56:01.793Z,3.53
2023-03-01T22:01:10.581Z,3.47
2023-03-01T22:06:23.081Z,3.42
2023-03-01T22:11:28.583Z,3.39
2023-03-01T22:16:36.212Z,3.36
2023-03-01T22:21:44.742Z,3.30
2023-03-01T22:26:50.006Z,3.27
2023-03-01T22:31:54.888Z,3.24
2023-03-01T22:36:58.792Z,3.22
2023-03-01T22:42:02.184Z,3.22
2023-03-01T22:47:05.772Z,3.19
2023-03-01T22:52:09.125Z,3.15
2023-03-01T22:57:12.352Z,3.13
2023-03-01T23:02:15.875Z,3.11
2023-03-01T23:07:19.184Z,3.12
2023-03-01T23:12:22.285Z,3.12
2023-03-01T23:17:25.565Z,3.10
2023-03-01T23:22:30.813Z,3.06
2023-03-01T23:27:37.182Z,3.00
2023-03-01T23:32:41.082Z,2.95
2023-03-01T23:37:45.757Z,2.91
2023-03-01T23:42:48.895Z,2.91
2023-03-01T23:47:52.378Z,2.90
2023-03-01T23:52:55.649Z,2.86
2023-03-01T23:57:58.961Z,2.85
